createdAt,value
2023-04-14T00:02:01.073Z,0.00
2023-04-14T00:07:23.684Z,0.00
2023-04-14T00:12:16.102Z,0.00
2023-04-14T00:17:16.121Z,0.00
2023-04-14T00:22:15.953Z,0.00
2023-04-14T00:27:15.892Z,0.00
2023-04-14T00:32:15.803Z,0.00
2023-04-14T00:37:15.747Z,0.00
2023-04-14T00:42:15.675Z,0.00
2023-04-14T00:47:15.625Z,0.00
2023-04-14T00:52:15.555Z,0.00
2023-04-14T00:57:15.498Z,0.00
2023-04-14T01:02:15.482Z,0.00
2023-04-14T01:07:15.386Z,0.00
2023-04-14T01:12:15.297Z,0.00
2023-04-14T01:17:15.608Z,0.00
2023-04-14T01:22:15.166Z,0.00
2023-04-14T01:27:15.120Z,0.00
2023-04-14T01:32:15.008Z,0.00
2023-04-14T01:37:15.037Z,0.00
2023-04-14T01:42:14.952Z,0.00
2023-04-14T01:47:14.858Z,0.00
2023-04-14T01:52:14.777Z,0.00
2023-04-14T01:57:14.743Z,0.00
2023-04-14T02:02:14.728Z,0.00
2023-04-14T02:07:14.594Z,0.00
2023-04-14T02:12:14.533Z,0.00
2023-04-14T02:17:14.477Z,0.00
2023-04-14T02:22:14.398Z,0.00
2023-04-14T02:27:14.356Z,0.00
2023-04-14T02:32:14.254Z,0.00
2023-04-14T02:37:14.212Z,0.00
2023-04-14T02:42:14.139Z,0.00
2023-04-14T02:47:14.116Z,0.00
2023-04-14T02:52:14.034Z,0.00
2023-04-14T02:57:13.958Z,0.00
2023-04-14T03:02:14.004Z,0.00
2023-04-14T03:07:13.837Z,0.00
2023-04-14T03:12:13.730Z,0.00
2023-04-14T03:17:13.702Z,0.00
2023-04-14T03:22:13.615Z,0.00
2023-04-14T03:27:13.587Z,0.00
2023-04-14T03:32:13.495Z,0.00
2023-04-14T03:37:13.436Z,0.00
2023-04-14T03:42:13.371Z,0.00
2023-04-14T03:47:13.297Z,0.00
2023-04-14T03:52:13.271Z,0.00
2023-04-14T03:57:13.195Z,0.00
2023-04-14T04:02:13.127Z,0.00
2023-04-14T04:07:13.048Z,0.00
2023-04-14T04:12:12.979Z,0.00
2023-04-14T04:17:24.028Z,0.00
2023-04-14T04:22:16.359Z,0.00
2023-04-14T04:27:27.107Z,0.00
2023-04-14T04:32:17.328Z,0.00
2023-04-14T04:37:16.137Z,0.00
2023-04-14T04:42:16.084Z,0.00
2023-04-14T04:47:16.043Z,5.62
2023-04-14T04:52:15.991Z,5.62
2023-04-14T04:57:15.902Z,11.25
2023-04-14T05:02:15.848Z,11.25
2023-04-14T05:07:15.775Z,16.88
2023-04-14T05:12:15.729Z,16.88
2023-04-14T05:17:15.629Z,22.50
2023-04-14T05:22:16.257Z,28.12
2023-04-14T05:27:15.490Z,28.12
2023-04-14T05:32:15.450Z,33.75
2023-04-14T05:37:15.400Z,33.75
2023-04-14T05:42:15.360Z,33.75
2023-04-14T05:47:15.221Z,39.38
2023-04-14T05:52:15.189Z,45.00
2023-04-14T05:57:15.121Z,56.25
2023-04-14T06:02:15.100Z,67.50
2023-04-14T06:07:15.003Z,78.75
2023-04-14T06:12:14.947Z,78.75
2023-04-14T06:17:14.850Z,78.75
2023-04-14T06:22:14.816Z,78.75
2023-04-14T06:27:14.721Z,84.38
2023-04-14T06:32:14.679Z,95.62
2023-04-14T06:37:14.598Z,1063.12
2023-04-14T06:42:14.615Z,1305.00
2023-04-14T06:47:14.460Z,1428.75
2023-04-14T06:52:14.476Z,1406.25
2023-04-14T06:57:14.350Z,2874.38
2023-04-14T07:02:14.353Z,2874.38
2023-04-14T07:07:14.175Z,2874.38
2023-04-14T07:12:14.148Z,438.75
2023-04-14T07:17:14.077Z,506.25
2023-04-14T07:22:14.049Z,410.62
2023-04-14T07:27:14.276Z,315.00
2023-04-14T07:32:13.909Z,292.50
2023-04-14T07:37:13.817Z,292.50
2023-04-14T07:42:13.783Z,320.62
2023-04-14T07:47:13.679Z,388.12
2023-04-14T07:52:14.336Z,551.25
2023-04-14T07:57:13.617Z,714.38
2023-04-14T08:02:13.545Z,675.00
2023-04-14T08:07:13.439Z,793.12
2023-04-14T08:12:13.395Z,928.12
2023-04-14T08:17:13.290Z,1136.25
2023-04-14T08:22:13.232Z,1119.38
2023-04-14T08:27:13.174Z,1198.12
2023-04-14T08:32:13.216Z,945.00
2023-04-14T08:37:13.029Z,720.00
2023-04-14T08:42:12.973Z,708.75
2023-04-14T08:47:12.895Z,641.25
2023-04-14T08:52:12.865Z,472.50
2023-04-14T08:57:12.777Z,405.00
2023-04-14T09:02:12.844Z,376.88
2023-04-14T09:07:12.642Z,348.75
2023-04-14T09:12:12.597Z,331.88
2023-04-14T09:17:12.634Z,326.25
2023-04-14T09:22:12.456Z,320.62
2023-04-14T09:27:12.374Z,320.62
2023-04-14T09:32:12.346Z,331.88
2023-04-14T09:37:12.251Z,354.38
2023-04-14T09:42:12.216Z,348.75
2023-04-14T09:47:12.134Z,360.00
2023-04-14T09:52:12.049Z,360.00
2023-04-14T09:57:11.977Z,371.25
2023-04-14T10:02:12.103Z,371.25
2023-04-14T10:07:11.828Z,382.50
2023-04-14T10:12:11.792Z,393.75
2023-04-14T10:17:11.695Z,393.75
2023-04-14T10:22:11.686Z,399.38
2023-04-14T10:27:11.584Z,427.50
2023-04-14T10:32:11.520Z,450.00
2023-04-14T10:37:11.441Z,573.75
2023-04-14T10:42:11.392Z,720.00
2023-04-14T10:47:11.425Z,843.75
2023-04-14T10:52:11.254Z,900.00
2023-04-14T10:57:11.176Z,990.00
2023-04-14T11:02:11.237Z,1001.25
2023-04-14T11:07:11.047Z,838.12
2023-04-14T11:12:11.004Z,877.50
2023-04-14T11:17:10.948Z,765.00
2023-04-14T11:22:10.865Z,787.50
2023-04-14T11:27:10.842Z,765.00
2023-04-14T11:32:10.780Z,697.50
2023-04-14T11:37:10.638Z,742.50
2023-04-14T11:42:10.606Z,697.50
2023-04-14T11:47:10.496Z,697.50
2023-04-14T11:52:10.478Z,652.50
2023-04-14T11:57:10.445Z,703.12
2023-04-14T12:02:10.461Z,500.62
2023-04-14T12:07:10.268Z,466.88
2023-04-14T12:12:10.280Z,455.62
2023-04-14T12:17:10.113Z,354.38
2023-04-14T12:22:10.079Z,303.75
2023-04-14T12:27:10.028Z,286.88
2023-04-14T12:32:09.956Z,264.38
2023-04-14T12:37:09.870Z,253.12
2023-04-14T12:42:09.808Z,219.38
2023-04-14T12:47:09.786Z,241.88
2023-04-14T12:52:09.659Z,253.12
2023-04-14T12:57:09.593Z,264.38
2023-04-14T13:02:09.595Z,315.00
2023-04-14T13:07:09.528Z,253.12
2023-04-14T13:12:09.442Z,219.38
2023-04-14T13:17:09.343Z,213.75
2023-04-14T13:22:09.303Z,219.38
2023-04-14T13:27:09.223Z,219.38
2023-04-14T13:32:09.220Z,219.38
2023-04-14T13:37:09.042Z,180.00
2023-04-14T13:42:08.994Z,219.38
2023-04-14T13:47:08.931Z,191.25
2023-04-14T13:52:08.907Z,230.62
2023-04-14T13:57:08.797Z,174.38
2023-04-14T14:02:08.834Z,191.25
2023-04-14T14:07:08.677Z,180.00
2023-04-14T14:12:08.617Z,185.62
2023-04-14T14:17:08.547Z,168.75
2023-04-14T14:22:08.483Z,168.75
2023-04-14T14:27:08.395Z,174.38
2023-04-14T14:32:08.384Z,174.38
2023-04-14T14:37:08.282Z,174.38
2023-04-14T14:42:08.206Z,140.62
2023-04-14T14:47:08.174Z,174.38
2023-04-14T14:52:08.085Z,180.00
2023-04-14T14:57:08.024Z,135.00
2023-04-14T15:02:07.967Z,163.12
2023-04-14T15:07:07.807Z,135.00
2023-04-14T15:12:07.812Z,112.50
2023-04-14T15:17:07.710Z,90.00
2023-04-14T15:22:07.691Z,129.38
2023-04-14T15:27:07.621Z,123.75
2023-04-14T15:32:07.593Z,106.88
2023-04-14T15:37:07.493Z,84.38
2023-04-14T15:42:07.430Z,84.38
2023-04-14T15:47:07.352Z,67.50
2023-04-14T15:52:07.281Z,61.88
2023-04-14T15:57:07.199Z,61.88
2023-04-14T16:02:07.176Z,61.88
2023-04-14T16:07:07.084Z,61.88
2023-04-14T16:12:07.034Z,67.50
2023-04-14T16:17:06.977Z,67.50
2023-04-14T16:22:07.716Z,84.38
2023-04-14T16:27:06.870Z,90.00
2023-04-14T16:32:06.891Z,61.88
2023-04-14T16:37:07.518Z,78.75
2023-04-14T16:42:06.658Z,78.75
2023-04-14T16:47:06.566Z,73.12
2023-04-14T16:52:06.655Z,67.50
2023-04-14T16:57:06.436Z,61.88
2023-04-14T17:02:06.430Z,56.25
2023-04-14T17:07:06.270Z,45.00
2023-04-14T17:12:06.215Z,45.00
2023-04-14T17:17:06.155Z,50.62
2023-04-14T17:22:06.093Z,45.00
2023-04-14T17:27:06.038Z,39.38
2023-04-14T17:32:05.990Z,39.38
2023-04-14T17:37:05.900Z,33.75
2023-04-14T17:42:05.805Z,28.12
2023-04-14T17:47:05.754Z,22.50
2023-04-14T17:52:05.689Z,16.88
2023-04-14T17:57:05.641Z,11.25
2023-04-14T18:02:05.628Z,11.25
2023-04-14T18:07:05.507Z,5.62
2023-04-14T18:12:05.411Z,5.62
2023-04-14T18:17:05.412Z,0.00
2023-04-14T18:22:05.280Z,0.00
2023-04-14T18:32:05.129Z,0.00
2023-04-14T18:37:05.079Z,0.00
2023-04-14T18:42:05.064Z,0.00
2023-04-14T18:47:04.963Z,0.00
2023-04-14T18:52:04.902Z,0.00
2023-04-14T18:57:04.862Z,0.00
2023-04-14T19:02:04.853Z,0.00
2023-04-14T19:07:04.715Z,0.00
2023-04-14T19:12:04.648Z,0.00
2023-04-14T19:17:04.585Z,0.00
2023-04-14T19:22:04.490Z,0.00
2023-04-14T19:27:04.443Z,0.00
2023-04-14T19:32:04.565Z,0.00
2023-04-14T19:37:04.305Z,0.00
2023-04-14T19:42:04.197Z,0.00
2023-04-14T19:47:04.278Z,0.00
2023-04-14T19:52:04.096Z,0.00
2023-04-14T19:57:04.021Z,0.00
2023-04-14T20:02:04.304Z,0.00
2023-04-14T20:07:03.947Z,0.00
2023-04-14T20:12:03.837Z,0.00
2023-04-14T20:17:03.825Z,0.00
2023-04-14T20:22:03.725Z,0.00
2023-04-14T20:27:03.638Z,0.00
2023-04-14T20:32:03.542Z,0.00
2023-04-14T20:37:03.496Z,0.00
2023-04-14T20:42:03.435Z,0.00
2023-04-14T20:47:03.426Z,0.00
2023-04-14T20:52:03.339Z,0.00
2023-04-14T20:57:03.241Z,0.00
2023-04-14T21:02:03.417Z,0.00
2023-04-14T21:07:03.084Z,0.00
2023-04-14T21:12:15.479Z,0.00
2023-04-14T21:17:04.380Z,0.00
2023-04-14T21:22:02.930Z,0.00
2023-04-14T21:27:02.817Z,0.00
2023-04-14T21:32:02.831Z,0.00
2023-04-14T21:37:02.686Z,0.00
2023-04-14T21:42:02.645Z,0.00
2023-04-14T21:47:02.569Z,0.00
2023-04-14T21:52:02.497Z,0.00
2023-04-14T21:57:02.417Z,0.00
2023-04-14T22:02:02.448Z,0.00
2023-04-14T22:07:02.292Z,0.00
2023-04-14T22:12:02.244Z,0.00
2023-04-14T22:17:02.309Z,0.00
2023-04-14T22:22:02.149Z,0.00
2023-04-14T22:27:02.025Z,0.00
2023-04-14T22:32:01.975Z,0.00
2023-04-14T22:37:02.015Z,0.00
2023-04-14T22:42:01.843Z,0.00
2023-04-14T22:47:01.780Z,0.00
2023-04-14T22:52:01.779Z,0.00
2023-04-14T22:57:01.641Z,0.00
2023-04-14T23:02:01.714Z,0.00
2023-04-14T23:07:01.540Z,0.00
2023-04-14T23:12:01.457Z,0.00
2023-04-14T23:17:01.374Z,0.00
2023-04-14T23:22:01.301Z,0.00
2023-04-14T23:27:01.231Z,0.00
2023-04-14T23:32:01.308Z,0.00
2023-04-14T23:37:01.099Z,0.00
2023-04-14T23:42:01.039Z,0.00
2023-04-14T23:47:01.082Z,0.00
2023-04-14T23:52:00.914Z,0.00
2023-04-14T23:57:00.861Z,0.00
